sensor_id;sensor_type;location;lat;lon;timestamp;pressure;altitude;pressure_sealevel;temperature;humidity
68822;BME280;55834;50.870;4.606;2022-12-13T00:01:43;100448.59;;;-3.12;50.94
68822;BME280;55834;50.870;4.606;2022-12-13T00:04:09;100447.06;;;-3.04;53.28
68822;BME280;55834;50.870;4.606;2022-12-13T00:06:35;100442.78;;;-3.03;51.96
68822;BME280;55834;50.870;4.606;2022-12-13T00:09:02;100443.63;;;-3.04;52.34
68822;BME280;55834;50.870;4.606;2022-12-13T00:11:27;100444.53;;;-3.02;52.49
68822;BME280;55834;50.870;4.606;2022-12-13T00:13:53;100447.31;;;-2.93;52.23
68822;BME280;55834;50.870;4.606;2022-12-13T00:16:20;100442.09;;;-2.96;51.35
68822;BME280;55834;50.870;4.606;2022-12-13T00:18:48;100437.72;;;-3.00;51.56
68822;BME280;55834;50.870;4.606;2022-12-13T00:21:17;100446.13;;;-3.09;52.36
68822;BME280;55834;50.870;4.606;2022-12-13T00:23:43;100438.53;;;-3.01;53.47
68822;BME280;55834;50.870;4.606;2022-12-13T00:26:11;100438.50;;;-3.03;52.81
68822;BME280;55834;50.870;4.606;2022-12-13T00:28:37;100432.50;;;-3.02;51.87
68822;BME280;55834;50.870;4.606;2022-12-13T00:31:03;100423.81;;;-3.05;51.01
68822;BME280;55834;50.870;4.606;2022-12-13T00:33:29;100427.88;;;-3.17;50.29
68822;BME280;55834;50.870;4.606;2022-12-13T00:35:54;100421.22;;;-3.43;50.64
68822;BME280;55834;50.870;4.606;2022-12-13T00:38:20;100426.59;;;-3.34;52.30
68822;BME280;55834;50.870;4.606;2022-12-13T00:40:46;100422.44;;;-3.27;51.20
68822;BME280;55834;50.870;4.606;2022-12-13T00:43:11;100423.28;;;-3.28;51.00
68822;BME280;55834;50.870;4.606;2022-12-13T00:45:37;100423.75;;;-3.46;51.32
68822;BME280;55834;50.870;4.606;2022-12-13T00:48:04;100418.06;;;-3.31;51.89
68822;BME280;55834;50.870;4.606;2022-12-13T00:50:29;100413.84;;;-3.26;51.53
68822;BME280;55834;50.870;4.606;2022-12-13T00:52:55;100419.72;;;-3.33;50.99
68822;BME280;55834;50.870;4.606;2022-12-13T00:55:20;100413.22;;;-3.54;49.78
68822;BME280;55834;50.870;4.606;2022-12-13T00:57:46;100415.16;;;-3.45;50.83
68822;BME280;55834;50.870;4.606;2022-12-13T01:00:11;100410.00;;;-3.44;50.79
68822;BME280;55834;50.870;4.606;2022-12-13T01:02:36;100405.34;;;-3.60;50.68
68822;BME280;55834;50.870;4.606;2022-12-13T01:05:02;100406.28;;;-3.56;52.10
68822;BME280;55834;50.870;4.606;2022-12-13T01:07:27;100409.72;;;-3.57;53.11
68822;BME280;55834;50.870;4.606;2022-12-13T01:09:53;100407.13;;;-3.57;52.58
68822;BME280;55834;50.870;4.606;2022-12-13T01:12:18;100414.28;;;-3.46;52.45
68822;BME280;55834;50.870;4.606;2022-12-13T01:14:44;100411.63;;;-3.49;51.46
68822;BME280;55834;50.870;4.606;2022-12-13T01:17:09;100410.78;;;-3.48;51.51
68822;BME280;55834;50.870;4.606;2022-12-13T01:19:35;100413.09;;;-3.58;51.78
68822;BME280;55834;50.870;4.606;2022-12-13T01:22:03;100416.88;;;-3.80;53.57
68822;BME280;55834;50.870;4.606;2022-12-13T01:24:29;100412.16;;;-3.64;54.02
68822;BME280;55834;50.870;4.606;2022-12-13T01:26:55;100405.44;;;-3.55;54.31
68822;BME280;55834;50.870;4.606;2022-12-13T01:29:21;100408.19;;;-3.49;53.90
68822;BME280;55834;50.870;4.606;2022-12-13T01:31:47;100399.81;;;-3.39;53.81
68822;BME280;55834;50.870;4.606;2022-12-13T01:34:15;100411.13;;;-3.34;53.59
68822;BME280;55834;50.870;4.606;2022-12-13T01:36:41;100406.88;;;-3.32;52.42
68822;BME280;55834;50.870;4.606;2022-12-13T01:39:07;100407.03;;;-3.24;53.22
68822;BME280;55834;50.870;4.606;2022-12-13T01:41:34;100409.72;;;-3.20;53.07
68822;BME280;55834;50.870;4.606;2022-12-13T01:44:56;100408.78;;;-3.23;52.60
68822;BME280;55834;50.870;4.606;2022-12-13T01:46:49;100418.00;;;-3.33;52.60
68822;BME280;55834;50.870;4.606;2022-12-13T01:49:16;100419.72;;;-3.33;53.57
68822;BME280;55834;50.870;4.606;2022-12-13T01:51:55;100417.25;;;-3.29;53.77
68822;BME280;55834;50.870;4.606;2022-12-13T01:54:27;100413.63;;;-3.37;53.21
68822;BME280;55834;50.870;4.606;2022-12-13T01:56:56;100402.44;;;-3.37;54.69
68822;BME280;55834;50.870;4.606;2022-12-13T01:59:22;100408.13;;;-3.51;53.40
68822;BME280;55834;50.870;4.606;2022-12-13T02:01:49;100402.22;;;-3.81;55.00
68822;BME280;55834;50.870;4.606;2022-12-13T02:04:30;100401.81;;;-3.98;56.18
68822;BME280;55834;50.870;4.606;2022-12-13T02:06:58;100394.72;;;-3.72;55.55
68822;BME280;55834;50.870;4.606;2022-12-13T02:09:25;100401.00;;;-3.61;56.39
68822;BME280;55834;50.870;4.606;2022-12-13T02:11:50;100394.53;;;-3.44;55.30
68822;BME280;55834;50.870;4.606;2022-12-13T02:14:15;100398.66;;;-3.52;54.55
68822;BME280;55834;50.870;4.606;2022-12-13T02:16:49;100391.28;;;-3.35;54.60
68822;BME280;55834;50.870;4.606;2022-12-13T02:19:42;100393.25;;;-3.25;53.82
68822;BME280;55834;50.870;4.606;2022-12-13T02:22:38;100400.00;;;-3.30;53.21
68822;BME280;55834;50.870;4.606;2022-12-13T02:28:24;100394.38;;;-3.50;53.25
68822;BME280;55834;50.870;4.606;2022-12-13T02:31:00;100395.41;;;-3.43;54.57
68822;BME280;55834;50.870;4.606;2022-12-13T02:36:00;100384.44;;;-3.33;53.43
68822;BME280;55834;50.870;4.606;2022-12-13T02:38:50;100389.41;;;-3.42;52.62
68822;BME280;55834;50.870;4.606;2022-12-13T02:41:26;100383.97;;;-3.54;53.16
68822;BME280;55834;50.870;4.606;2022-12-13T02:44:05;100386.72;;;-3.47;52.79
68822;BME280;55834;50.870;4.606;2022-12-13T02:46:36;100385.91;;;-3.44;52.29
68822;BME280;55834;50.870;4.606;2022-12-13T02:49:06;100389.13;;;-3.54;52.10
68822;BME280;55834;50.870;4.606;2022-12-13T02:51:33;100384.78;;;-3.55;52.55
68822;BME280;55834;50.870;4.606;2022-12-13T02:53:59;100388.06;;;-3.63;52.65
68822;BME280;55834;50.870;4.606;2022-12-13T02:56:24;100377.03;;;-3.55;53.92
68822;BME280;55834;50.870;4.606;2022-12-13T02:58:52;100370.88;;;-3.64;52.93
68822;BME280;55834;50.870;4.606;2022-12-13T03:01:46;100374.19;;;-3.68;53.43
68822;BME280;55834;50.870;4.606;2022-12-13T03:04:55;100375.38;;;-3.53;54.02
68822;BME280;55834;50.870;4.606;2022-12-13T03:10:32;100375.38;;;-3.55;52.86
68822;BME280;55834;50.870;4.606;2022-12-13T03:13:06;100371.22;;;-3.48;53.38
68822;BME280;55834;50.870;4.606;2022-12-13T03:15:57;100375.50;;;-3.49;53.38
68822;BME280;55834;50.870;4.606;2022-12-13T03:18:25;100375.56;;;-3.46;53.21
68822;BME280;55834;50.870;4.606;2022-12-13T03:20:53;100381.63;;;-3.44;52.84
68822;BME280;55834;50.870;4.606;2022-12-13T03:23:20;100372.91;;;-3.49;52.50
68822;BME280;55834;50.870;4.606;2022-12-13T03:25:49;100372.91;;;-4.20;52.50
68822;BME280;55834;50.870;4.606;2022-12-13T03:28:15;100365.94;;;-3.89;55.06
68822;BME280;55834;50.870;4.606;2022-12-13T03:30:40;100370.59;;;-3.74;54.92
68822;BME280;55834;50.870;4.606;2022-12-13T03:33:05;100369.06;;;-3.66;54.22
68822;BME280;55834;50.870;4.606;2022-12-13T03:35:31;100365.50;;;-3.71;53.12
68822;BME280;55834;50.870;4.606;2022-12-13T03:37:57;100358.75;;;-3.66;54.21
68822;BME280;55834;50.870;4.606;2022-12-13T03:40:23;100366.03;;;-3.85;53.34
68822;BME280;55834;50.870;4.606;2022-12-13T03:42:49;100367.06;;;-3.78;54.28
68822;BME280;55834;50.870;4.606;2022-12-13T03:45:14;100361.22;;;-3.71;54.03
68822;BME280;55834;50.870;4.606;2022-12-13T03:47:41;100368.09;;;-3.70;53.97
68822;BME280;55834;50.870;4.606;2022-12-13T03:50:06;100359.88;;;-3.55;53.78
68822;BME280;55834;50.870;4.606;2022-12-13T03:52:32;100362.53;;;-3.52;52.52
68822;BME280;55834;50.870;4.606;2022-12-13T03:54:57;100357.38;;;-3.52;52.50
68822;BME280;55834;50.870;4.606;2022-12-13T03:57:22;100357.44;;;-3.47;52.80
68822;BME280;55834;50.870;4.606;2022-12-13T03:59:48;100351.50;;;-3.45;52.69
68822;BME280;55834;50.870;4.606;2022-12-13T04:02:13;100342.50;;;-3.62;52.81
68822;BME280;55834;50.870;4.606;2022-12-13T04:04:38;100338.69;;;-3.78;52.49
68822;BME280;55834;50.870;4.606;2022-12-13T04:07:04;100338.44;;;-3.89;54.19
68822;BME280;55834;50.870;4.606;2022-12-13T04:09:29;100340.03;;;-3.94;54.48
68822;BME280;55834;50.870;4.606;2022-12-13T04:11:54;100333.69;;;-3.72;54.38
68822;BME280;55834;50.870;4.606;2022-12-13T04:14:38;100321.44;;;-3.80;53.27
68822;BME280;55834;50.870;4.606;2022-12-13T04:17:04;100323.63;;;-3.96;53.23
68822;BME280;55834;50.870;4.606;2022-12-13T04:19:29;100325.91;;;-4.08;55.34
68822;BME280;55834;50.870;4.606;2022-12-13T04:21:54;100329.03;;;-3.87;54.87
68822;BME280;55834;50.870;4.606;2022-12-13T04:24:21;100330.19;;;-3.74;53.69
68822;BME280;55834;50.870;4.606;2022-12-13T04:26:46;100323.56;;;-3.63;53.31
68822;BME280;55834;50.870;4.606;2022-12-13T04:29:12;100319.22;;;-3.65;52.74
68822;BME280;55834;50.870;4.606;2022-12-13T04:31:37;100317.53;;;-3.63;53.13
68822;BME280;55834;50.870;4.606;2022-12-13T04:34:03;100321.09;;;-3.94;53.67
68822;BME280;55834;50.870;4.606;2022-12-13T04:36:28;100322.91;;;-3.90;53.67
68822;BME280;55834;50.870;4.606;2022-12-13T04:38:53;100321.47;;;-3.79;53.68
68822;BME280;55834;50.870;4.606;2022-12-13T04:41:19;100324.75;;;-3.86;52.68
68822;BME280;55834;50.870;4.606;2022-12-13T04:43:50;100314.72;;;-3.74;53.26
68822;BME280;55834;50.870;4.606;2022-12-13T04:46:18;100314.69;;;-3.75;51.87
68822;BME280;55834;50.870;4.606;2022-12-13T04:48:43;100310.47;;;-3.72;52.68
68822;BME280;55834;50.870;4.606;2022-12-13T04:51:08;100301.13;;;-3.67;52.13
68822;BME280;55834;50.870;4.606;2022-12-13T04:53:34;100306.31;;;-3.65;52.01
68822;BME280;55834;50.870;4.606;2022-12-13T04:56:02;100311.13;;;-3.79;51.34
68822;BME280;55834;50.870;4.606;2022-12-13T04:58:27;100317.69;;;-3.93;51.61
68822;BME280;55834;50.870;4.606;2022-12-13T05:00:53;100318.25;;;-4.05;52.03
68822;BME280;55834;50.870;4.606;2022-12-13T05:03:18;100309.13;;;-3.92;51.69
68822;BME280;55834;50.870;4.606;2022-12-13T05:05:43;100320.53;;;-3.82;51.67
68822;BME280;55834;50.870;4.606;2022-12-13T05:08:09;100318.94;;;-3.77;51.39
68822;BME280;55834;50.870;4.606;2022-12-13T05:10:34;100318.75;;;-3.85;50.67
68822;BME280;55834;50.870;4.606;2022-12-13T05:13:00;100313.69;;;-3.80;51.61
68822;BME280;55834;50.870;4.606;2022-12-13T05:15:27;100318.75;;;-3.85;50.16
68822;BME280;55834;50.870;4.606;2022-12-13T05:17:54;100317.81;;;-3.89;50.61
68822;BME280;55834;50.870;4.606;2022-12-13T05:20:20;100323.91;;;-3.85;51.23
68822;BME280;55834;50.870;4.606;2022-12-13T05:22:45;100316.09;;;-3.88;50.18
68822;BME280;55834;50.870;4.606;2022-12-13T05:25:10;100325.56;;;-4.22;51.04
68822;BME280;55834;50.870;4.606;2022-12-13T05:27:36;100321.59;;;-4.44;52.23
68822;BME280;55834;50.870;4.606;2022-12-13T05:30:01;100320.50;;;-4.19;52.95
68822;BME280;55834;50.870;4.606;2022-12-13T05:32:27;100329.06;;;-4.21;52.03
68822;BME280;55834;50.870;4.606;2022-12-13T05:34:52;100335.72;;;-4.28;51.16
68822;BME280;55834;50.870;4.606;2022-12-13T05:37:17;100323.13;;;-4.17;52.09
68822;BME280;55834;50.870;4.606;2022-12-13T05:39:43;100319.47;;;-4.25;52.64
68822;BME280;55834;50.870;4.606;2022-12-13T05:42:08;100317.91;;;-4.19;51.83
68822;BME280;55834;50.870;4.606;2022-12-13T05:44:34;100313.44;;;-4.26;51.65
68822;BME280;55834;50.870;4.606;2022-12-13T05:46:59;100312.28;;;-4.39;51.92
68822;BME280;55834;50.870;4.606;2022-12-13T05:49:24;100309.38;;;-4.51;52.16
68822;BME280;55834;50.870;4.606;2022-12-13T05:51:50;100307.00;;;-4.77;53.06
68822;BME280;55834;50.870;4.606;2022-12-13T05:54:15;100318.63;;;-5.21;54.94
68822;BME280;55834;50.870;4.606;2022-12-13T05:56:41;100311.59;;;-4.96;55.12
68822;BME280;55834;50.870;4.606;2022-12-13T05:59:06;100309.59;;;-5.07;55.19
68822;BME280;55834;50.870;4.606;2022-12-13T06:01:31;100306.94;;;-5.38;54.86
68822;BME280;55834;50.870;4.606;2022-12-13T06:03:57;100305.75;;;-5.21;56.27
68822;BME280;55834;50.870;4.606;2022-12-13T06:06:22;100309.41;;;-5.72;56.41
68822;BME280;55834;50.870;4.606;2022-12-13T06:08:47;100305.31;;;-5.36;57.06
68822;BME280;55834;50.870;4.606;2022-12-13T06:11:13;100298.06;;;-4.89;55.90
68822;BME280;55834;50.870;4.606;2022-12-13T06:13:42;100312.78;;;-5.73;56.71
68822;BME280;55834;50.870;4.606;2022-12-13T06:16:07;100313.47;;;-5.50;58.17
68822;BME280;55834;50.870;4.606;2022-12-13T06:18:34;100296.25;;;-4.92;56.79
68822;BME280;55834;50.870;4.606;2022-12-13T06:21:02;100286.59;;;-5.01;54.98
68822;BME280;55834;50.870;4.606;2022-12-13T06:23:29;100307.97;;;-5.62;55.47
68822;BME280;55834;50.870;4.606;2022-12-13T06:25:55;100310.97;;;-5.48;56.67
68822;BME280;55834;50.870;4.606;2022-12-13T06:28:20;100313.81;;;-5.09;56.47
68822;BME280;55834;50.870;4.606;2022-12-13T06:30:45;100303.75;;;-4.69;55.49
68822;BME280;55834;50.870;4.606;2022-12-13T06:33:11;100311.03;;;-5.16;54.91
68822;BME280;55834;50.870;4.606;2022-12-13T06:35:36;100303.25;;;-4.88;54.82
68822;BME280;55834;50.870;4.606;2022-12-13T06:38:02;100310.81;;;-5.53;56.02
68822;BME280;55834;50.870;4.606;2022-12-13T06:40:30;100306.41;;;-5.28;56.69
68822;BME280;55834;50.870;4.606;2022-12-13T06:42:56;100299.97;;;-5.14;55.58
68822;BME280;55834;50.870;4.606;2022-12-13T06:45:22;100286.59;;;-5.01;55.74
68822;BME280;55834;50.870;4.606;2022-12-13T06:47:47;100281.56;;;-4.96;53.73
68822;BME280;55834;50.870;4.606;2022-12-13T06:50:12;100288.16;;;-4.74;54.36
68822;BME280;55834;50.870;4.606;2022-12-13T06:52:38;100276.00;;;-4.46;54.40
68822;BME280;55834;50.870;4.606;2022-12-13T06:55:04;100283.28;;;-4.65;53.47
68822;BME280;55834;50.870;4.606;2022-12-13T06:57:31;100289.25;;;-4.98;54.00
68822;BME280;55834;50.870;4.606;2022-12-13T06:59:57;100289.78;;;-5.09;54.59
68822;BME280;55834;50.870;4.606;2022-12-13T07:02:23;100289.69;;;-4.82;54.64
68822;BME280;55834;50.870;4.606;2022-12-13T07:04:48;100280.06;;;-4.56;53.73
68822;BME280;55834;50.870;4.606;2022-12-13T07:07:13;100278.56;;;-4.46;52.47
68822;BME280;55834;50.870;4.606;2022-12-13T07:09:39;100282.25;;;-4.37;51.80
68822;BME280;55834;50.870;4.606;2022-12-13T07:12:05;100283.09;;;-4.36;51.56
68822;BME280;55834;50.870;4.606;2022-12-13T07:14:30;100284.81;;;-4.37;51.02
68822;BME280;55834;50.870;4.606;2022-12-13T07:16:57;100287.31;;;-4.40;49.62
68822;BME280;55834;50.870;4.606;2022-12-13T07:19:23;100289.00;;;-4.42;49.78
68822;BME280;55834;50.870;4.606;2022-12-13T07:21:48;100288.72;;;-4.53;51.16
68822;BME280;55834;50.870;4.606;2022-12-13T07:24:13;100299.78;;;-4.57;50.97
68822;BME280;55834;50.870;4.606;2022-12-13T07:26:39;100294.81;;;-4.49;51.00
68822;BME280;55834;50.870;4.606;2022-12-13T07:29:04;100294.19;;;-4.40;51.84
68822;BME280;55834;50.870;4.606;2022-12-13T07:31:29;100295.44;;;-4.59;50.85
68822;BME280;55834;50.870;4.606;2022-12-13T07:33:55;100297.97;;;-4.61;51.66
68822;BME280;55834;50.870;4.606;2022-12-13T07:36:22;100299.06;;;-4.84;51.00
68822;BME280;55834;50.870;4.606;2022-12-13T07:38:54;100298.66;;;-4.68;52.22
68822;BME280;55834;50.870;4.606;2022-12-13T07:41:24;100304.84;;;-4.60;51.56
68822;BME280;55834;50.870;4.606;2022-12-13T07:43:51;100305.53;;;-4.67;52.69
68822;BME280;55834;50.870;4.606;2022-12-13T07:46:16;100310.91;;;-4.59;51.81
68822;BME280;55834;50.870;4.606;2022-12-13T07:48:41;100303.25;;;-4.56;51.12
68822;BME280;55834;50.870;4.606;2022-12-13T07:51:08;100306.78;;;-4.53;51.22
68822;BME280;55834;50.870;4.606;2022-12-13T07:53:39;100308.50;;;-4.52;50.50
68822;BME280;55834;50.870;4.606;2022-12-13T07:56:06;100312.56;;;-4.60;50.11
68822;BME280;55834;50.870;4.606;2022-12-13T07:58:32;100319.50;;;-4.57;50.97
68822;BME280;55834;50.870;4.606;2022-12-13T08:01:03;100312.06;;;-4.46;51.55
68822;BME280;55834;50.870;4.606;2022-12-13T08:03:29;100313.06;;;-4.41;50.81
68822;BME280;55834;50.870;4.606;2022-12-13T08:06:03;100327.63;;;-4.43;51.41
68822;BME280;55834;50.870;4.606;2022-12-13T08:08:29;100316.47;;;-4.76;51.34
68822;BME280;55834;50.870;4.606;2022-12-13T08:10:59;100310.53;;;-4.73;52.46
68822;BME280;55834;50.870;4.606;2022-12-13T08:13:25;100316.47;;;-4.76;52.39
68822;BME280;55834;50.870;4.606;2022-12-13T08:15:56;100328.56;;;-4.71;52.18
68822;BME280;55834;50.870;4.606;2022-12-13T08:18:21;100338.69;;;-4.47;53.38
68822;BME280;55834;50.870;4.606;2022-12-13T08:20:47;100335.94;;;-4.20;53.19
68822;BME280;55834;50.870;4.606;2022-12-13T08:23:12;100333.84;;;-4.00;52.64
68822;BME280;55834;50.870;4.606;2022-12-13T08:25:37;100339.44;;;-3.83;52.17
68822;BME280;55834;50.870;4.606;2022-12-13T08:28:03;100332.81;;;-3.72;51.46
68822;BME280;55834;50.870;4.606;2022-12-13T08:30:30;100339.63;;;-3.74;52.27
68822;BME280;55834;50.870;4.606;2022-12-13T08:32:55;100340.72;;;-3.65;52.21
68822;BME280;55834;50.870;4.606;2022-12-13T08:35:20;100340.13;;;-3.53;52.33
68822;BME280;55834;50.870;4.606;2022-12-13T08:37:46;100334.59;;;-3.32;52.35
68822;BME280;55834;50.870;4.606;2022-12-13T08:40:11;100341.06;;;-3.10;52.30
68822;BME280;55834;50.870;4.606;2022-12-13T08:42:36;100343.03;;;-2.98;51.07
68822;BME280;55834;50.870;4.606;2022-12-13T08:45:02;100340.38;;;-3.01;50.08
68822;BME280;55834;50.870;4.606;2022-12-13T08:47:27;100331.03;;;-2.96;50.67
68822;BME280;55834;50.870;4.606;2022-12-13T08:49:54;100351.78;;;-2.91;50.57
68822;BME280;55834;50.870;4.606;2022-12-13T08:52:21;100352.66;;;-2.91;51.57
68822;BME280;55834;50.870;4.606;2022-12-13T08:54:46;100363.84;;;-2.90;51.39
68822;BME280;55834;50.870;4.606;2022-12-13T08:57:12;100352.91;;;-2.79;51.21
68822;BME280;55834;50.870;4.606;2022-12-13T08:59:37;100357.19;;;-2.79;51.20
68822;BME280;55834;50.870;4.606;2022-12-13T09:02:02;100357.38;;;-2.70;51.05
68822;BME280;55834;50.870;4.606;2022-12-13T09:04:28;100353.28;;;-2.59;50.61
68822;BME280;55834;50.870;4.606;2022-12-13T09:06:53;100354.25;;;-2.52;50.80
68822;BME280;55834;50.870;4.606;2022-12-13T09:09:19;100355.16;;;-2.50;51.25
68822;BME280;55834;50.870;4.606;2022-12-13T09:11:44;100360.41;;;-2.45;51.87
68822;BME280;55834;50.870;4.606;2022-12-13T09:14:09;100365.78;;;-2.35;50.78
68822;BME280;55834;50.870;4.606;2022-12-13T09:16:35;100357.47;;;-2.18;50.80
68822;BME280;55834;50.870;4.606;2022-12-13T09:19:01;100362.84;;;-2.06;50.55
68822;BME280;55834;50.870;4.606;2022-12-13T09:21:27;100357.72;;;-2.03;50.15
68822;BME280;55834;50.870;4.606;2022-12-13T09:23:53;100356.63;;;-2.17;49.64
68822;BME280;55834;50.870;4.606;2022-12-13T09:26:19;100349.66;;;-2.20;49.92
68822;BME280;55834;50.870;4.606;2022-12-13T09:28:45;100354.06;;;-2.16;50.46
68822;BME280;55834;50.870;4.606;2022-12-13T09:31:16;100346.31;;;-2.14;50.38
68822;BME280;55834;50.870;4.606;2022-12-13T09:33:42;100359.34;;;-2.10;49.95
68822;BME280;55834;50.870;4.606;2022-12-13T09:36:11;100370.72;;;-2.00;50.78
68822;BME280;55834;50.870;4.606;2022-12-13T09:38:36;100367.50;;;-1.85;49.84
68822;BME280;55834;50.870;4.606;2022-12-13T09:41:27;100370.22;;;-1.77;49.75
68822;BME280;55834;50.870;4.606;2022-12-13T09:43:58;100351.25;;;-1.78;49.99
68822;BME280;55834;50.870;4.606;2022-12-13T09:46:28;100353.78;;;-1.80;50.19
68822;BME280;55834;50.870;4.606;2022-12-13T09:48:55;100355.91;;;-2.10;50.05
68822;BME280;55834;50.870;4.606;2022-12-13T09:51:23;100344.75;;;-2.06;50.05
68822;BME280;55834;50.870;4.606;2022-12-13T09:53:50;100346.13;;;-2.27;50.50
68822;BME280;55834;50.870;4.606;2022-12-13T09:56:18;100347.38;;;-2.05;49.83
68822;BME280;55834;50.870;4.606;2022-12-13T09:58:47;100338.03;;;-1.93;50.41
68822;BME280;55834;50.870;4.606;2022-12-13T10:01:14;100353.75;;;-1.83;50.36
68822;BME280;55834;50.870;4.606;2022-12-13T10:03:44;100339.19;;;-1.76;50.93
68822;BME280;55834;50.870;4.606;2022-12-13T10:06:15;100337.63;;;-1.66;50.64
68822;BME280;55834;50.870;4.606;2022-12-13T10:08:59;100339.22;;;-1.74;49.50
68822;BME280;55834;50.870;4.606;2022-12-13T10:11:26;100335.81;;;-1.70;50.55
68822;BME280;55834;50.870;4.606;2022-12-13T10:14:03;100332.53;;;-1.60;49.98
68822;BME280;55834;50.870;4.606;2022-12-13T10:19:13;100330.19;;;-1.42;49.72
68822;BME280;55834;50.870;4.606;2022-12-13T10:21:42;100322.50;;;-1.36;48.88
68822;BME280;55834;50.870;4.606;2022-12-13T10:24:21;100319.97;;;-1.32;49.14
68822;BME280;55834;50.870;4.606;2022-12-13T10:26:57;100313.88;;;-1.36;49.14
68822;BME280;55834;50.870;4.606;2022-12-13T10:29:24;100309.59;;;-1.32;48.92
68822;BME280;55834;50.870;4.606;2022-12-13T10:31:51;100302.50;;;-1.49;48.57
68822;BME280;55834;50.870;4.606;2022-12-13T10:36:47;100299.91;;;-1.49;48.39
68822;BME280;55834;50.870;4.606;2022-12-13T10:39:18;100291.53;;;-1.29;49.24
68822;BME280;55834;50.870;4.606;2022-12-13T10:42:01;100278.72;;;-1.17;49.45
68822;BME280;55834;50.870;4.606;2022-12-13T10:44:27;100282.94;;;-1.24;48.54
68822;BME280;55834;50.870;4.606;2022-12-13T10:47:12;100275.94;;;-1.32;47.79
68822;BME280;55834;50.870;4.606;2022-12-13T10:52:39;100293.22;;;-1.31;48.37
68822;BME280;55834;50.870;4.606;2022-12-13T10:55:21;100299.41;;;-1.20;48.01
68822;BME280;55834;50.870;4.606;2022-12-13T10:57:53;100293.28;;;-1.28;47.66
68822;BME280;55834;50.870;4.606;2022-12-13T11:00:42;100286.88;;;-1.53;48.45
68822;BME280;55834;50.870;4.606;2022-12-13T11:03:12;100273.31;;;-1.36;48.69
68822;BME280;55834;50.870;4.606;2022-12-13T11:05:38;100274.09;;;-1.41;48.45
68822;BME280;55834;50.870;4.606;2022-12-13T11:08:30;100271.94;;;-1.07;47.58
68822;BME280;55834;50.870;4.606;2022-12-13T11:11:03;100265.94;;;-1.02;48.05
68822;BME280;55834;50.870;4.606;2022-12-13T11:13:35;100270.72;;;-1.36;46.41
68822;BME280;55834;50.870;4.606;2022-12-13T11:16:19;100272.50;;;-1.31;47.27
68822;BME280;55834;50.870;4.606;2022-12-13T11:18:50;100271.00;;;-1.13;47.42
68822;BME280;55834;50.870;4.606;2022-12-13T11:21:23;100263.94;;;-1.26;46.36
68822;BME280;55834;50.870;4.606;2022-12-13T11:23:49;100257.19;;;-1.13;47.47
68822;BME280;55834;50.870;4.606;2022-12-13T11:26:17;100249.53;;;-1.01;47.04
68822;BME280;55834;50.870;4.606;2022-12-13T11:29:13;100250.50;;;-0.94;48.26
68822;BME280;55834;50.870;4.606;2022-12-13T11:39:54;100233.56;;;-0.60;47.18
68822;BME280;55834;50.870;4.606;2022-12-13T11:42:25;100237.06;;;-0.52;46.15
68822;BME280;55834;50.870;4.606;2022-12-13T11:45:13;100228.53;;;-0.40;46.65
68822;BME280;55834;50.870;4.606;2022-12-13T11:50:13;100219.94;;;-0.34;45.74
68822;BME280;55834;50.870;4.606;2022-12-13T11:52:43;100226.81;;;-0.42;46.00
68822;BME280;55834;50.870;4.606;2022-12-13T11:55:16;100222.31;;;-0.62;45.19
68822;BME280;55834;50.870;4.606;2022-12-13T12:00:28;100219.94;;;-0.33;46.43
68822;BME280;55834;50.870;4.606;2022-12-13T12:03:02;100207.81;;;-0.35;45.07
68822;BME280;55834;50.870;4.606;2022-12-13T12:05:36;100194.94;;;-0.23;45.79
68822;BME280;55834;50.870;4.606;2022-12-13T12:08:16;100183.75;;;-0.14;45.53
68822;BME280;55834;50.870;4.606;2022-12-13T12:10:45;100196.50;;;-0.48;46.30
68822;BME280;55834;50.870;4.606;2022-12-13T12:13:16;100192.31;;;-0.26;46.11
68822;BME280;55834;50.870;4.606;2022-12-13T12:18:28;100191.50;;;-0.25;45.08
68822;BME280;55834;50.870;4.606;2022-12-13T12:21:28;100198.47;;;-0.15;45.21
68822;BME280;55834;50.870;4.606;2022-12-13T12:24:07;100188.06;;;-0.18;44.71
68822;BME280;55834;50.870;4.606;2022-12-13T12:29:23;100208.06;;;-0.05;44.49
68822;BME280;55834;50.870;4.606;2022-12-13T12:32:09;100199.19;;;-0.34;44.62
68822;BME280;55834;50.870;4.606;2022-12-13T12:34:40;100192.38;;;-0.22;44.67
68822;BME280;55834;50.870;4.606;2022-12-13T12:40:14;100183.72;;;-0.22;43.65
68822;BME280;55834;50.870;4.606;2022-12-13T12:46:05;100170.00;;;0.00;45.02
68822;BME280;55834;50.870;4.606;2022-12-13T12:51:38;100150.97;;;-0.00;44.74
68822;BME280;55834;50.870;4.606;2022-12-13T12:54:31;100156.13;;;-0.11;44.77
68822;BME280;55834;50.870;4.606;2022-12-13T12:57:10;100151.81;;;-0.07;44.56
68822;BME280;55834;50.870;4.606;2022-12-13T13:02:37;100132.84;;;0.06;44.66
68822;BME280;55834;50.870;4.606;2022-12-13T13:05:13;100134.59;;;0.07;44.21
68822;BME280;55834;50.870;4.606;2022-12-13T13:07:51;100133.72;;;0.11;44.84
68822;BME280;55834;50.870;4.606;2022-12-13T13:10:19;100134.63;;;0.19;44.97
68822;BME280;55834;50.870;4.606;2022-12-13T13:12:45;100141.56;;;0.22;44.48
68822;BME280;55834;50.870;4.606;2022-12-13T13:17:55;100139.88;;;0.27;44.47
68822;BME280;55834;50.870;4.606;2022-12-13T13:20:22;100136.44;;;0.36;44.84
68822;BME280;55834;50.870;4.606;2022-12-13T13:22:49;100132.13;;;0.42;45.03
68822;BME280;55834;50.870;4.606;2022-12-13T13:28:01;100128.59;;;0.25;44.19
68822;BME280;55834;50.870;4.606;2022-12-13T13:30:29;100132.06;;;0.22;44.43
68822;BME280;55834;50.870;4.606;2022-12-13T13:32:56;100131.19;;;0.27;45.18
68822;BME280;55834;50.870;4.606;2022-12-13T13:37:58;100122.06;;;-0.63;45.02
68822;BME280;55834;50.870;4.606;2022-12-13T13:40:33;100114.47;;;-0.32;44.59
68822;BME280;55834;50.870;4.606;2022-12-13T13:45:57;100105.78;;;-0.37;46.35
68822;BME280;55834;50.870;4.606;2022-12-13T14:16:41;100076.81;;;-0.99;49.67
68822;BME280;55834;50.870;4.606;2022-12-13T14:24:34;100071.09;;;-0.52;47.72
68822;BME280;55834;50.870;4.606;2022-12-13T14:29:43;100087.50;;;-0.57;48.77
68822;BME280;55834;50.870;4.606;2022-12-13T14:32:21;100079.59;;;-0.77;49.79
68822;BME280;55834;50.870;4.606;2022-12-13T14:34:47;100078.84;;;-0.62;48.68